createdAt,value
2023-05-11T00:04:56.167Z,93.22
2023-05-11T00:09:57.939Z,93.14
2023-05-11T00:15:00.002Z,93.39
2023-05-11T00:20:02.082Z,93.35
2023-05-11T00:25:04.486Z,93.40
2023-05-11T00:30:07.027Z,93.70
2023-05-11T00:35:12.450Z,93.82
2023-05-11T00:40:15.492Z,94.17
2023-05-11T00:45:18.305Z,94.57
2023-05-11T00:50:20.937Z,94.78
2023-05-11T00:55:23.057Z,94.77
2023-05-11T01:00:24.901Z,95.47
2023-05-11T01:05:40.682Z,96.35
2023-05-11T01:10:49.138Z,97.02
2023-05-11T01:15:52.968Z,97.09
2023-05-11T01:21:01.648Z,97.75
2023-05-11T01:26:16.507Z,98.86
2023-05-11T01:31:20.347Z,99.40
2023-05-11T01:36:28.359Z,100.00
2023-05-11T01:41:33.684Z,100.00
2023-05-11T01:46:36.061Z,100.00
2023-05-11T01:51:39.537Z,100.00
2023-05-11T01:56:44.258Z,100.00
2023-05-11T02:01:46.475Z,100.00
2023-05-11T02:06:49.396Z,100.00
2023-05-11T02:11:53.924Z,100.00
2023-05-11T02:16:57.261Z,100.00
2023-05-11T02:22:00.595Z,100.00
2023-05-11T02:27:02.808Z,100.00
2023-05-11T02:32:09.235Z,100.00
2023-05-11T02:37:20.827Z,100.00
2023-05-11T02:42:24.917Z,100.00
2023-05-11T02:47:32.321Z,100.00
2023-05-11T02:52:35.988Z,100.00
2023-05-11T02:57:39.087Z,100.00
2023-05-11T03:02:43.720Z,100.00
2023-05-11T03:07:45.836Z,100.00
2023-05-11T03:12:47.711Z,100.00
2023-05-11T03:17:52.229Z,100.00
2023-05-11T03:22:56.614Z,100.00
2023-05-11T03:27:59.201Z,100.00
2023-05-11T03:33:02.380Z,100.00
2023-05-11T03:38:05.738Z,100.00
2023-05-11T03:43:10.897Z,100.00
2023-05-11T03:48:16.208Z,100.00
2023-05-11T03:53:18.425Z,100.00
2023-05-11T03:58:20.431Z,100.00
2023-05-11T04:03:23.394Z,100.00
2023-05-11T04:08:25.516Z,100.00
2023-05-11T04:13:27.401Z,100.00
2023-05-11T04:18:29.460Z,100.00
2023-05-11T04:23:31.484Z,100.00
2023-05-11T04:28:34.249Z,100.00
2023-05-11T04:33:36.150Z,100.00
2023-05-11T04:38:39.221Z,100.00
2023-05-11T04:43:41.847Z,100.00
2023-05-11T04:48:45.274Z,100.00
2023-05-11T04:53:47.574Z,100.00
2023-05-11T04:58:49.480Z,100.00
2023-05-11T05:03:51.839Z,100.00
2023-05-11T05:08:53.563Z,100.00
2023-05-11T05:13:55.578Z,100.00
2023-05-11T05:18:57.654Z,100.00
2023-05-11T05:23:59.942Z,100.00
2023-05-11T05:29:02.189Z,100.00
2023-05-11T05:34:04.866Z,100.00
2023-05-11T05:39:11.916Z,100.00
2023-05-11T05:44:14.539Z,100.00
2023-05-11T05:49:17.629Z,100.00
2023-05-11T05:54:19.707Z,100.00
2023-05-11T05:59:24.172Z,100.00
2023-05-11T06:04:30.319Z,100.00
2023-05-11T06:09:32.302Z,100.00
2023-05-11T06:14:34.179Z,100.00
2023-05-11T06:19:37.497Z,100.00
2023-05-11T06:24:39.868Z,100.00
2023-05-11T06:29:42.308Z,100.00
2023-05-11T06:34:45.375Z,100.00
2023-05-11T06:39:48.702Z,100.00
2023-05-11T06:44:50.617Z,100.00
2023-05-11T06:49:52.577Z,100.00
2023-05-11T06:54:54.370Z,100.00
2023-05-11T06:59:56.937Z,100.00
2023-05-11T07:04:58.928Z,100.00
2023-05-11T07:10:00.997Z,100.00
2023-05-11T07:15:02.980Z,100.00
2023-05-11T07:20:05.021Z,100.00
2023-05-11T07:25:09.617Z,100.00
2023-05-11T07:30:11.882Z,100.00
2023-05-11T07:35:15.112Z,100.00
2023-05-11T07:40:17.249Z,100.00
2023-05-11T07:45:19.557Z,100.00
2023-05-11T07:50:23.889Z,100.00
2023-05-11T07:55:27.028Z,100.00
2023-05-11T08:00:28.806Z,100.00
2023-05-11T08:05:33.173Z,100.00
2023-05-11T08:10:35.886Z,100.00
2023-05-11T08:15:37.888Z,100.00
2023-05-11T08:20:42.151Z,100.00
2023-05-11T08:25:55.467Z,100.00
2023-05-11T08:30:58.254Z,100.00
2023-05-11T08:36:00.269Z,100.00
2023-05-11T08:41:03.145Z,100.00
2023-05-11T08:46:09.718Z,100.00
2023-05-11T08:51:12.100Z,100.00
2023-05-11T08:56:15.608Z,100.00
2023-05-11T09:01:19.199Z,100.00
2023-05-11T09:06:23.212Z,100.00
2023-05-11T09:11:25.329Z,100.00
2023-05-11T09:16:36.701Z,100.00
2023-05-11T09:21:39.472Z,100.00
2023-05-11T09:26:41.362Z,100.00
2023-05-11T09:31:45.240Z,100.00
2023-05-11T09:36:52.370Z,100.00
2023-05-11T09:42:23.536Z,100.00
2023-05-11T09:47:25.356Z,100.00
2023-05-11T09:52:27.061Z,100.00
2023-05-11T09:57:31.287Z,100.00
2023-05-11T10:02:34.334Z,100.00
2023-05-11T10:07:36.486Z,100.00
2023-05-11T10:12:40.236Z,100.00
2023-05-11T10:17:44.628Z,100.00
2023-05-11T10:22:47.525Z,100.00
2023-05-11T10:27:50.870Z,100.00
2023-05-11T10:32:55.194Z,100.00
2023-05-11T10:37:58.390Z,100.00
2023-05-11T10:43:52.357Z,100.00
2023-05-11T10:48:54.051Z,100.00
2023-05-11T10:54:28.080Z,100.00
2023-05-11T10:59:48.002Z,100.00
2023-05-11T11:04:52.089Z,100.00
2023-05-11T11:10:00.510Z,100.00
2023-05-11T11:15:07.536Z,100.00
2023-05-11T11:20:30.358Z,100.00
2023-05-11T11:25:53.253Z,100.00
2023-05-11T11:31:26.852Z,100.00
2023-05-11T11:37:01.040Z,100.00
2023-05-11T11:42:07.128Z,100.00
2023-05-11T11:47:20.793Z,100.00
2023-05-11T11:52:28.710Z,100.00
2023-05-11T11:57:33.167Z,100.00
2023-05-11T12:02:35.365Z,100.00
2023-05-11T12:07:43.350Z,100.00
2023-05-11T12:12:46.438Z,100.00
2023-05-11T12:17:48.148Z,100.00
2023-05-11T12:22:50.739Z,100.00
2023-05-11T12:28:03.481Z,100.00
2023-05-11T12:33:07.884Z,100.00
2023-05-11T12:38:11.010Z,100.00
2023-05-11T12:43:17.202Z,100.00
2023-05-11T12:48:19.570Z,100.00
2023-05-11T12:53:22.178Z,100.00
2023-05-11T12:58:24.028Z,100.00
2023-05-11T13:03:31.169Z,100.00
2023-05-11T13:08:33.124Z,100.00
2023-05-11T13:13:35.419Z,100.00
2023-05-11T13:18:37.242Z,100.00
2023-05-11T13:23:39.221Z,100.00
2023-05-11T13:28:41.228Z,100.00
2023-05-11T13:33:42.978Z,100.00
2023-05-11T13:38:45.595Z,100.00
2023-05-11T13:43:48.689Z,100.00
2023-05-11T13:48:50.364Z,100.00
2023-05-11T13:53:52.050Z,100.00
2023-05-11T13:58:53.747Z,100.00
2023-05-11T14:03:56.595Z,100.00
2023-05-11T14:08:58.341Z,100.00
2023-05-11T14:14:00.771Z,100.00
2023-05-11T14:19:02.590Z,100.00
2023-05-11T14:24:12.220Z,100.00
2023-05-11T14:29:14.797Z,100.00
2023-05-11T14:34:16.977Z,100.00
2023-05-11T14:39:18.698Z,100.00
2023-05-11T14:44:23.621Z,100.00
2023-05-11T14:49:25.407Z,100.00
2023-05-11T14:54:27.107Z,100.00
2023-05-11T14:59:28.788Z,100.00
2023-05-11T15:04:30.739Z,100.00
2023-05-11T15:09:32.485Z,100.00
2023-05-11T15:14:34.157Z,100.00
2023-05-11T15:19:36.036Z,100.00
2023-05-11T15:24:38.472Z,100.00
2023-05-11T15:29:40.785Z,100.00
2023-05-11T15:34:57.812Z,100.00
2023-05-11T15:40:00.727Z,100.00
2023-05-11T15:45:02.890Z,100.00
2023-05-11T15:50:04.976Z,100.00
2023-05-11T15:55:07.656Z,100.00
2023-05-11T16:00:10.543Z,100.00
2023-05-11T16:05:12.337Z,100.00
2023-05-11T16:10:14.062Z,100.00
2023-05-11T16:15:27.829Z,100.00
2023-05-11T16:20:30.774Z,100.00
2023-05-11T16:25:32.496Z,100.00
2023-05-11T16:30:34.244Z,100.00
2023-05-11T16:35:36.093Z,100.00
2023-05-11T16:40:37.859Z,100.00
2023-05-11T16:45:39.914Z,100.00
2023-05-11T16:50:42.290Z,100.00
2023-05-11T16:55:44.015Z,100.00
2023-05-11T17:00:46.110Z,100.00
2023-05-11T17:05:48.654Z,100.00
2023-05-11T17:10:50.543Z,100.00
2023-05-11T17:15:56.053Z,100.00
2023-05-11T17:20:58.131Z,100.00
2023-05-11T17:25:59.894Z,100.00
2023-05-11T17:31:09.291Z,100.00
2023-05-11T17:36:12.612Z,100.00
2023-05-11T17:41:15.242Z,100.00
2023-05-11T17:46:17.113Z,99.70
2023-05-11T17:51:20.258Z,100.00
2023-05-11T17:56:22.281Z,100.00
2023-05-11T18:01:24.043Z,100.00
2023-05-11T18:06:25.973Z,100.00
2023-05-11T18:11:27.734Z,100.00
2023-05-11T18:16:29.720Z,100.00
2023-05-11T18:21:31.990Z,100.00
2023-05-11T18:26:33.740Z,100.00
2023-05-11T18:31:35.566Z,100.00
2023-05-11T18:36:37.599Z,100.00
2023-05-11T18:41:39.260Z,100.00
2023-05-11T18:46:41.727Z,100.00
2023-05-11T18:51:43.586Z,100.00
2023-05-11T18:56:45.281Z,100.00
2023-05-11T19:01:48.353Z,100.00
2023-05-11T19:06:50.469Z,100.00
2023-05-11T19:11:52.130Z,100.00
2023-05-11T19:16:53.954Z,100.00
2023-05-11T19:21:55.881Z,100.00
2023-05-11T19:27:06.594Z,100.00
2023-05-11T19:32:09.380Z,100.00
2023-05-11T19:37:11.711Z,100.00
2023-05-11T19:42:13.405Z,100.00
2023-05-11T19:47:15.693Z,100.00
2023-05-11T19:52:17.397Z,100.00
2023-05-11T19:57:19.760Z,100.00
2023-05-11T20:02:21.507Z,100.00
2023-05-11T20:07:23.820Z,100.00
2023-05-11T20:12:25.636Z,100.00
2023-05-11T20:17:27.299Z,100.00
2023-05-11T20:22:31.406Z,100.00
2023-05-11T20:27:33.690Z,100.00
2023-05-11T20:32:37.400Z,100.00
2023-05-11T20:37:39.746Z,100.00
2023-05-11T20:42:41.516Z,100.00
2023-05-11T20:47:43.274Z,100.00
2023-05-11T20:52:45.572Z,100.00
2023-05-11T20:57:47.252Z,100.00
2023-05-11T21:02:49.350Z,100.00
2023-05-11T21:07:51.322Z,100.00
2023-05-11T21:12:53.532Z,100.00
2023-05-11T21:17:55.479Z,100.00
2023-05-11T21:22:58.076Z,100.00
2023-05-11T21:28:00.928Z,100.00
2023-05-11T21:33:02.887Z,100.00
2023-05-11T21:38:04.653Z,100.00
2023-05-11T21:43:08.119Z,100.00
2023-05-11T21:48:11.252Z,100.00
2023-05-11T21:53:12.902Z,100.00
2023-05-11T21:58:14.818Z,100.00
2023-05-11T22:03:16.853Z,100.00
2023-05-11T22:08:18.573Z,100.00
2023-05-11T22:13:20.934Z,100.00
2023-05-11T22:18:22.682Z,100.00
2023-05-11T22:23:24.637Z,100.00
2023-05-11T22:28:26.420Z,100.00
2023-05-11T22:33:28.055Z,100.00
2023-05-11T22:38:30.321Z,100.00
2023-05-11T22:43:32.084Z,100.00
2023-05-11T22:48:33.818Z,100.00
2023-05-11T22:53:35.635Z,100.00
2023-05-11T22:58:37.701Z,100.00
2023-05-11T23:03:40.101Z,100.00
2023-05-11T23:08:41.881Z,100.00
2023-05-11T23:13:43.702Z,100.00
2023-05-11T23:18:46.343Z,100.00
2023-05-11T23:23:48.202Z,100.00
2023-05-11T23:28:50.037Z,100.00
2023-05-11T23:33:51.915Z,100.00
2023-05-11T23:38:54.349Z,100.00
2023-05-11T23:43:56.386Z,100.00
2023-05-11T23:48:58.438Z,100.00
2023-05-11T23:54:00.404Z,100.00
2023-05-11T23:59:02.392Z,100.00
